Latest Coastal Weather Observations for Samuel Hill

IDQ60701

Issued at 6:42 pm EST Sunday 19 November 2017 (issued every 10 minutes, with the page automatically refreshed every 10 minutes)

About coastal observations | Map of coastal stations | Coastal observations for QLD | Marine services | Other Formats
Station Details ID: 033308 Name: SAMUEL HILL AERO Lat: -22.74 Lon: 150.66 Height: 31.0 m
Data from the previous 72 hours. | See also: Recent months at Samuel Hill
Date/Time
EST
Temp
°C
Wind Pressure Rain since
9am
mm
Weather Cloud Vis
km
Sea
Height
m
Swell
Dir  Spd
kts
Gust
kts
hPa Trend Height
m
Period
s
Dir
19/06:30pm 22.3 SE 6 10 1014.4 - 0.8 - Clear 10 - - - -
19/06:00pm 22.6 ESE 7 9 1014.0 - 0.8 - Cloudy 10 - - - -
19/05:30pm 23.1 ESE 8 15 1013.4 - 0.8 - Partly cloudy 10 - - - -
19/05:00pm 23.2 ESE 10 15 1013.1 - 0.8 - Partly cloudy 10 - - - -
19/04:30pm 24.7 SE 10 16 1012.7 - 0.8 - Partly cloudy 10 - - - -
19/04:00pm 23.8 ESE 10 16 1012.7 - 0.8 - Partly cloudy 10 - - - -
19/03:30pm 23.1 SE 9 15 1013.0 - 0.8 - Partly cloudy 10 - - - -
19/03:10pm 22.8 SE 4 7 1013.1 - 0.8 - Partly cloudy 10 - - - -
19/03:00pm 22.0 ESE 7 13 1013.3 - 0.8 Showers Cloudy 7 - - - -
19/02:56pm 21.9 SE 8 13 1013.3 - 0.8 - Partly cloudy 7 - - - -
19/02:30pm 24.8 ESE 11 16 1013.3 - 0.2 - Partly cloudy 10 - - - -
19/02:00pm 24.4 ESE 10 14 1013.4 - 0.2 - Partly cloudy 10 - - - -
19/01:30pm 24.7 ESE 10 15 1013.6 - 0.2 - Partly cloudy 10 - - - -
19/01:00pm 25.9 E 9 14 1013.8 - 0.2 - Partly cloudy 10 - - - -
19/12:30pm 25.4 ESE 9 14 1014.0 - 0.2 - Partly cloudy 10 - - - -
19/12:00pm 25.7 ESE 9 14 1014.2 - 0.2 - Mostly clear 10 - - - -
19/11:30am 25.5 ESE 9 13 1014.4 - 0.2 - Partly cloudy 10 - - - -
19/11:00am 25.0 ESE 8 12 1014.7 - 0.2 - Partly cloudy 10 - - - -
19/10:30am 25.5 ESE 9 14 1014.7 - 0.2 - Partly cloudy 10 - - - -
19/10:00am 25.2 ESE 10 15 1014.6 - 0.2 - Partly cloudy 10 - - - -
19/09:30am 25.4 E 9 15 1014.4 - 0.2 - Partly cloudy 10 - - - -
19/09:00am 25.5 ENE 8 13 1014.4 - 2.0 - Partly cloudy 10 - - - -
19/08:30am 25.5 E 8 12 1014.3 - 2.0 - - 10 - - - -
19/08:00am 24.5 E 7 11 1014.1 - 2.0 - Partly cloudy 10 - - - -
19/07:30am 23.6 E 5 7 1014.0 - 2.0 - Partly cloudy 10 - - - -
19/07:00am 22.5 ESE 5 9 1013.8 - 2.0 - Partly cloudy 10 - - - -
19/06:30am 22.2 ESE 5 7 1013.5 - 2.0 - - 10 - - - -
19/06:00am 21.4 E 3 4 1012.9 - 2.0 - Mostly clear 10 - - - -
19/05:30am 19.6 SE 4 5 1012.5 - 2.0 - Partly cloudy 10 - - - -
19/05:00am 19.7 SE 3 5 1012.4 - 2.0 - Partly cloudy 10 - - - -
19/04:30am 20.3 SE 5 7 1012.6 - 2.0 - Partly cloudy 10 - - - -
19/04:00am 20.2 E 3 5 1012.1 - 2.0 - Partly cloudy 10 - - - -
19/03:30am 20.0 SSE 4 5 1012.0 - 2.0 - Partly cloudy 10 - - - -
19/03:16am 20.2 SSE 4 5 1012.0 - 2.0 - Partly cloudy 10 - - - -
19/03:00am 20.2 ESE 7 11 1011.9 - 1.8 Showers Cloudy 5 - - - -
19/02:58am 20.2 ESE 7 11 1011.9 - 1.6 - Partly cloudy 6 - - - -
19/02:49am 20.5 SE 5 8 1012.0 - 1.0 - Partly cloudy 10 - - - -
19/02:39am 20.7 ESE 6 11 1011.9 - 1.0 - Partly cloudy 7 - - - -
19/02:30am 21.1 SSE 6 9 1011.9 - 0.4 - Partly cloudy 10 - - - -
19/02:00am 21.3 SSE 5 10 1012.0 - 0.2 - Partly cloudy 10 - - - -
19/01:30am 21.8 E 5 7 1012.1 - 0.2 - Partly cloudy 10 - - - -
19/01:00am 21.7 ESE 5 10 1012.4 - 0.2 - Partly cloudy 10 - - - -
19/12:30am 21.9 ESE 5 8 1012.8 - 0.2 - Partly cloudy 10 - - - -
19/12:00am 21.5 ESE 5 7 1013.2 - 0.2 - Mostly clear 10 - - - -
 
Date/Time
EST
Temp
°C
Wind Pressure Rain since
9am
mm
Weather Cloud Vis
km
Sea
Height
m
Swell
Dir  Spd
kts
Gust
kts
hPa Trend Height
m
Period
s
Dir
18/11:30pm 20.3 ESE 5 6 1013.5 - 0.2 - - 10 - - - -
18/11:00pm 19.8 SW 4 5 1013.9 - 0.2 - Partly cloudy 10 - - - -
18/10:30pm 19.6 SW 1 5 1014.2 - 0.2 - Partly cloudy 10 - - - -
18/10:00pm 20.3 SSE 2 4 1014.1 - 0.2 - - 10 - - - -
18/09:30pm 19.8 SE 4 4 1013.9 - 0.2 - - 10 - - - -
18/09:00pm 20.1 S 4 4 1013.5 - 0.2 - - 10 - - - -
18/08:30pm 19.9 SE 4 4 1013.4 - 0.2 - - 10 - - - -
18/08:00pm 20.6 CALM 0 0 1013.2 - 0.2 - - 10 - - - -
18/07:30pm 21.2 E 4 5 1013.1 - 0.2 - - 10 - - - -
18/07:00pm 22.0 ESE 4 7 1012.9 - 0.2 - - 10 - - - -
18/06:30pm 22.5 E 6 8 1012.6 - 0.2 - - 10 - - - -
18/06:00pm 23.4 E 6 9 1012.3 - 0.2 - - 10 - - - -
18/05:30pm 23.9 ESE 9 11 1011.8 - 0.2 - Partly cloudy 10 - - - -
18/05:00pm 23.9 ESE 8 11 1011.5 - 0.2 - - 10 - - - -
18/04:30pm 24.5 E 7 11 1011.6 - 0.2 - Partly cloudy 10 - - - -
18/04:00pm 24.6 E 7 11 1011.4 - 0.2 - - 10 - - - -
18/03:30pm 26.0 ESE 10 13 1011.4 - 0.2 - Partly cloudy 10 - - - -
18/03:00pm 25.2 E 9 15 1011.7 - 0.2 - Cloudy 10 - - - -
18/02:30pm 26.7 E 9 16 1011.7 - 0.2 - Partly cloudy 10 - - - -
18/02:00pm 27.6 ENE 8 14 1011.7 - 0.2 - Partly cloudy 10 - - - -
18/01:30pm 27.8 E 7 12 1012.0 - 0.2 - - 10 - - - -
18/01:00pm 26.8 ENE 7 11 1012.3 - 0.2 - Partly cloudy 10 - - - -
18/12:30pm 27.3 ENE 8 13 1012.2 - 0.2 - - 10 - - - -
18/12:00pm 27.1 NE 11 15 1012.5 - 0.2 - - 10 - - - -
18/11:30am 27.2 ENE 9 16 1013.0 - 0.2 - Partly cloudy 10 - - - -
18/11:00am 26.4 ESE 8 13 1014.2 - 0.2 - Partly cloudy 10 - - - -
18/10:30am 25.6 SE 10 15 1015.0 - 0.2 - Partly cloudy 10 - - - -
18/10:00am 25.6 SSE 10 16 1015.2 - 0.2 - Partly cloudy 10 - - - -
18/09:30am 26.2 SE 11 16 1015.2 - 0.0 - Partly cloudy 10 - - - -
18/09:00am 25.9 SE 10 14 1014.9 - 0.2 - Mostly clear 10 - - - -
18/08:30am 25.4 ESE 10 15 1014.9 - 0.2 - - 10 - - - -
18/08:00am 23.3 SE 6 11 1015.1 - 0.2 - - 10 - - - -
18/07:30am 22.2 ESE 7 11 1014.9 - 0.2 - Partly cloudy 10 - - - -
18/07:00am 20.4 SE 8 15 1014.8 - 0.2 - Partly cloudy 10 - - - -
18/06:30am 20.9 ESE 6 8 1014.4 - 0.0 - Partly cloudy 10 - - - -
18/06:00am 20.8 SSE 3 5 1014.5 - 0.0 - Cloudy 10 - - - -
18/05:30am 20.1 S 4 6 1014.1 - 0.0 - Partly cloudy 10 - - - -
18/05:00am 19.8 S 4 5 1013.7 - 0.0 - Partly cloudy 10 - - - -
18/04:30am 18.8 S 4 5 1013.3 - 0.0 - - 10 - - - -
18/04:00am 18.0 W 4 5 1013.3 - 0.0 - - 10 - - - -
18/03:30am 17.7 S 2 5 1013.1 - 0.0 - - 10 - - - -
18/03:00am 17.1 S 2 4 1012.8 - 0.0 - Partly cloudy 10 - - - -
18/02:30am 17.2 CALM 0 0 1012.8 - 0.0 - - 10 - - - -
18/02:00am 17.6 SW 3 6 1013.3 - 0.0 - - 10 - - - -
18/01:30am 17.8 WSW 3 6 1013.3 - 0.0 - - 10 - - - -
18/01:00am 17.9 CALM 0 0 1013.3 - 0.0 - - 10 - - - -
18/12:30am 18.2 CALM 0 0 1013.6 - 0.0 - - 10 - - - -
18/12:00am 18.2 CALM 0 0 1013.9 - 0.0 - - 10 - - - -
 
Date/Time
EST
Temp
°C
Wind Pressure Rain since
9am
mm
Weather Cloud Vis
km
Sea
Height
m
Swell
Dir  Spd
kts
Gust
kts
hPa Trend Height
m
Period
s
Dir
17/11:30pm 18.4 CALM 0 0 1014.5 - 0.0 - - 10 - - - -
17/11:00pm 18.9 SW 2 4 1014.6 - 0.0 - - 10 - - - -
17/10:30pm 19.5 SSE 1 4 1014.8 - 0.0 - - 10 - - - -
17/10:00pm 20.5 CALM 0 0 1014.9 - 0.0 - Partly cloudy 10 - - - -
17/09:30pm 20.9 E 6 10 1014.8 - 0.0 - Partly cloudy 10 - - - -
17/09:00pm 21.3 ESE 3 4 1014.7 - 0.0 - - 10 - - - -
17/08:30pm 21.8 ESE 5 9 1014.6 - 0.0 - - 10 - - - -
17/08:00pm 21.6 ESE 4 6 1014.3 - 0.0 - - 10 - - - -
17/07:30pm 21.9 E 4 5 1014.2 - 0.0 - - 10 - - - -
17/07:00pm 22.3 E 6 9 1013.8 - 0.0 - - 10 - - - -
17/06:30pm 22.7 E 7 12 1013.7 - 0.0 - - 10 - - - -
17/06:00pm 23.2 E 8 14 1013.4 - 0.0 - - 10 - - - -
17/05:30pm 23.6 E 9 13 1013.3 - 0.0 - Partly cloudy 10 - - - -
17/05:00pm 24.1 E 8 12 1013.6 - 0.0 - Partly cloudy 10 - - - -
17/04:30pm 24.7 ESE 8 13 1013.5 - 0.0 - - 10 - - - -
17/04:00pm 25.3 E 9 13 1013.6 - 0.0 - - 10 - - - -
17/03:30pm 24.7 ESE 8 14 1013.7 - 0.0 - Partly cloudy 10 - - - -
17/03:00pm 26.0 ESE 8 13 1014.0 - 0.0 - Partly cloudy 10 - - - -
17/02:30pm 25.5 ESE 11 16 1014.3 - 0.0 - Partly cloudy 10 - - - -
17/02:00pm 25.8 E 11 15 1014.4 - 0.0 - Partly cloudy 10 - - - -
17/01:30pm 25.5 ESE 11 15 1014.7 - 0.0 - Partly cloudy 10 - - - -
17/01:00pm 26.3 ESE 9 14 1014.9 - 0.0 - Partly cloudy 10 - - - -
17/12:30pm 26.7 ESE 8 15 1015.2 - 0.0 - Partly cloudy 10 - - - -
17/12:00pm 27.2 E 10 16 1015.3 - 0.0 - - 10 - - - -
17/11:30am 27.4 E 9 13 1015.7 - 0.0 - Partly cloudy 10 - - - -
17/11:00am 26.9 E 10 16 1015.9 - 0.0 - Partly cloudy 10 - - - -
17/10:30am 26.9 ENE 9 13 1016.0 - 0.0 - Partly cloudy 10 - - - -
17/10:00am 26.5 ENE 8 12 1016.2 - 0.0 - Partly cloudy 10 - - - -
17/09:30am 26.1 E 9 14 1016.2 - 0.0 - Partly cloudy 10 - - - -
17/09:00am 26.3 E 9 12 1015.9 - 0.0 - Mostly clear 10 - - - -
17/08:30am 25.5 E 9 13 1015.7 - 0.0 - Partly cloudy 10 - - - -
17/08:00am 25.3 E 8 13 1015.6 - 0.0 - Partly cloudy 10 - - - -
17/07:30am 24.7 ESE 7 10 1015.4 - 0.0 - - 10 - - - -
17/07:00am 23.0 SE 3 7 1015.1 - 0.0 - Partly cloudy 10 - - - -
17/06:30am 20.5 CALM 0 0 1014.6 - 0.0 - - 10 - - - -
17/06:00am 17.3 CALM 0 0 1014.6 - 0.0 - - 10 - - - -
17/05:30am 15.6 CALM 0 0 1014.5 - 0.0 - - 10 - - - -
17/05:00am 15.3 CALM 0 0 1014.2 - 0.0 - - 10 - - - -
17/04:30am 15.8 CALM 0 0 1014.1 - 0.0 - - 10 - - - -
17/04:00am 15.6 CALM 0 0 1013.9 - 0.0 - Partly cloudy 10 - - - -
17/03:30am 15.9 CALM 0 0 1013.8 - 0.0 - - 10 - - - -
17/03:00am 16.0 CALM 0 0 1014.0 - 0.0 - Mostly clear 10 - - - -
17/02:30am 15.9 CALM 0 0 1013.9 - 0.0 - Partly cloudy 10 - - - -
17/02:00am 16.3 CALM 0 0 1014.2 - 0.0 - - 10 - - - -
17/01:30am 16.3 CALM 0 0 1014.2 - 0.0 - Partly cloudy 10 - - - -
17/01:00am 16.6 CALM 0 0 1014.5 - 0.0 - - 10 - - - -
17/12:30am 16.8 CALM 0 0 1014.8 - 0.0 - - 10 - - - -
17/12:00am 17.3 S 3 4 1015.1 - 0.0 - - 10 - - - -
 
Date/Time
EST
Temp
°C
Wind Pressure Rain since
9am
mm
Weather Cloud Vis
km
Sea
Height
m
Swell
Dir  Spd
kts
Gust
kts
hPa Trend Height
m
Period
s
Dir
16/11:30pm 17.3 S 2 5 1015.3 - 0.0 - - 10 - - - -
16/11:00pm 17.5 CALM 0 0 1015.5 - 0.0 - - 10 - - - -
16/10:30pm 17.8 CALM 0 0 1015.6 - 0.0 - - 10 - - - -
16/10:00pm 18.4 CALM 0 0 1015.6 - 0.0 - - 10 - - - -
16/09:30pm 18.4 E 3 4 1015.5 - 0.0 - - 10 - - - -
16/09:00pm 18.9 E 3 4 1015.4 - 0.0 - - 10 - - - -
16/08:30pm 19.3 ESE 4 5 1015.4 - 0.0 - - 10 - - - -
16/08:00pm 20.3 ESE 3 4 1015.3 - 0.0 - - 10 - - - -
16/07:30pm 20.9 ESE 4 5 1015.0 - 0.0 - - 10 - - - -
16/07:00pm 21.7 ESE 3 4 1014.8 - 0.0 - Partly cloudy 10 - - - -

Other Formats:

Comma delimited format used in spreadsheet applications
http://www.bom.gov.au/fwo/IDQ60701/IDQ60701.94370.axf

JavaScript Object Notation format (JSON) in row-major order
http://www.bom.gov.au/fwo/IDQ60701/IDQ60701.94370.json